sensor_id;sensor_type;location;lat;lon;timestamp;temperature;humidity
72646;DHT22;60687;53.876;10.674;2023-04-06T00:01:19;4.30;91.30
72646;DHT22;60687;53.876;10.674;2023-04-06T00:11:21;4.20;91.90
72646;DHT22;60687;53.876;10.674;2023-04-06T00:21:25;4.10;93.20
72646;DHT22;60687;53.876;10.674;2023-04-06T00:31:29;4.00;90.30
72646;DHT22;60687;53.876;10.674;2023-04-06T00:41:33;4.00;91.60
72646;DHT22;60687;53.876;10.674;2023-04-06T00:51:35;3.80;91.40
72646;DHT22;60687;53.876;10.674;2023-04-06T01:01:39;3.70;90.90
72646;DHT22;60687;53.876;10.674;2023-04-06T01:11:56;3.60;92.20
72646;DHT22;60687;53.876;10.674;2023-04-06T01:22:05;3.50;94.00
72646;DHT22;60687;53.876;10.674;2023-04-06T01:32:10;3.40;93.20
72646;DHT22;60687;53.876;10.674;2023-04-06T01:42:22;3.30;94.10
72646;DHT22;60687;53.876;10.674;2023-04-06T01:52:27;3.20;93.10
72646;DHT22;60687;53.876;10.674;2023-04-06T02:02:29;3.10;94.80
72646;DHT22;60687;53.876;10.674;2023-04-06T02:12:41;3.00;95.20
72646;DHT22;60687;53.876;10.674;2023-04-06T02:22:48;2.90;95.30
72646;DHT22;60687;53.876;10.674;2023-04-06T02:32:52;2.80;95.50
72646;DHT22;60687;53.876;10.674;2023-04-06T02:42:54;2.70;96.50
72646;DHT22;60687;53.876;10.674;2023-04-06T02:53:05;2.60;97.20
72646;DHT22;60687;53.876;10.674;2023-04-06T03:03:09;2.60;97.30
72646;DHT22;60687;53.876;10.674;2023-04-06T03:13:14;2.50;97.70
72646;DHT22;60687;53.876;10.674;2023-04-06T03:23:21;2.50;97.90
72646;DHT22;60687;53.876;10.674;2023-04-06T03:33:30;2.50;98.60
72646;DHT22;60687;53.876;10.674;2023-04-06T03:43:32;2.50;96.60
72646;DHT22;60687;53.876;10.674;2023-04-06T03:53:39;2.40;99.00
72646;DHT22;60687;53.876;10.674;2023-04-06T04:03:41;2.40;98.10
72646;DHT22;60687;53.876;10.674;2023-04-06T04:13:45;2.30;98.40
72646;DHT22;60687;53.876;10.674;2023-04-06T04:23:48;2.30;99.60
72646;DHT22;60687;53.876;10.674;2023-04-06T04:33:53;2.30;99.90
72646;DHT22;60687;53.876;10.674;2023-04-06T04:44:02;2.20;99.90
72646;DHT22;60687;53.876;10.674;2023-04-06T04:54:07;2.20;99.90
72646;DHT22;60687;53.876;10.674;2023-04-06T05:04:10;2.20;99.90
72646;DHT22;60687;53.876;10.674;2023-04-06T05:14:17;2.20;99.90
72646;DHT22;60687;53.876;10.674;2023-04-06T05:24:20;2.20;99.90
72646;DHT22;60687;53.876;10.674;2023-04-06T05:34:27;2.30;99.90
72646;DHT22;60687;53.876;10.674;2023-04-06T05:44:32;2.30;99.90
72646;DHT22;60687;53.876;10.674;2023-04-06T05:54:45;2.40;99.90
72646;DHT22;60687;53.876;10.674;2023-04-06T06:04:50;2.50;99.90
72646;DHT22;60687;53.876;10.674;2023-04-06T06:14:57;2.70;99.90
72646;DHT22;60687;53.876;10.674;2023-04-06T06:25:02;2.90;99.90
72646;DHT22;60687;53.876;10.674;2023-04-06T06:35:06;3.10;99.90
72646;DHT22;60687;53.876;10.674;2023-04-06T06:45:10;3.40;99.90
72646;DHT22;60687;53.876;10.674;2023-04-06T06:55:14;3.70;99.90
72646;DHT22;60687;53.876;10.674;2023-04-06T07:05:20;4.00;98.60
72646;DHT22;60687;53.876;10.674;2023-04-06T07:15:24;4.30;95.70
72646;DHT22;60687;53.876;10.674;2023-04-06T07:25:27;4.90;95.80
72646;DHT22;60687;53.876;10.674;2023-04-06T07:35:31;5.30;92.60
72646;DHT22;60687;53.876;10.674;2023-04-06T07:45:35;5.60;85.30
72646;DHT22;60687;53.876;10.674;2023-04-06T07:55:39;6.00;78.70
72646;DHT22;60687;53.876;10.674;2023-04-06T08:05:42;6.40;78.70
72646;DHT22;60687;53.876;10.674;2023-04-06T08:15:46;6.70;74.50
72646;DHT22;60687;53.876;10.674;2023-04-06T08:25:49;7.20;76.60
72646;DHT22;60687;53.876;10.674;2023-04-06T08:35:55;7.60;74.20
72646;DHT22;60687;53.876;10.674;2023-04-06T08:45:59;7.90;65.80
72646;DHT22;60687;53.876;10.674;2023-04-06T08:56:04;8.20;61.40
72646;DHT22;60687;53.876;10.674;2023-04-06T09:06:08;8.70;61.90
72646;DHT22;60687;53.876;10.674;2023-04-06T09:16:14;9.00;58.40
72646;DHT22;60687;53.876;10.674;2023-04-06T09:26:19;9.60;58.00
72646;DHT22;60687;53.876;10.674;2023-04-06T09:36:31;10.00;56.00
72646;DHT22;60687;53.876;10.674;2023-04-06T09:46:36;10.30;50.90
72646;DHT22;60687;53.876;10.674;2023-04-06T09:56:46;10.50;46.80
72646;DHT22;60687;53.876;10.674;2023-04-06T10:06:51;10.60;46.90
72646;DHT22;60687;53.876;10.674;2023-04-06T10:16:55;10.90;42.30
72646;DHT22;60687;53.876;10.674;2023-04-06T10:26:59;11.10;45.30
72646;DHT22;60687;53.876;10.674;2023-04-06T10:37:13;11.40;47.70
72646;DHT22;60687;53.876;10.674;2023-04-06T10:47:17;11.70;43.30
72646;DHT22;60687;53.876;10.674;2023-04-06T10:57:29;11.80;45.70
72646;DHT22;60687;53.876;10.674;2023-04-06T11:07:34;12.10;41.10
72646;DHT22;60687;53.876;10.674;2023-04-06T11:17:38;12.20;42.30
72646;DHT22;60687;53.876;10.674;2023-04-06T11:27:41;12.20;40.80
72646;DHT22;60687;53.876;10.674;2023-04-06T11:37:50;11.90;42.50
72646;DHT22;60687;53.876;10.674;2023-04-06T11:47:57;11.90;41.80
72646;DHT22;60687;53.876;10.674;2023-04-06T11:58:02;11.90;38.40
72646;DHT22;60687;53.876;10.674;2023-04-06T12:08:04;11.70;42.10
72646;DHT22;60687;53.876;10.674;2023-04-06T12:18:09;11.60;40.50
72646;DHT22;60687;53.876;10.674;2023-04-06T12:28:12;11.40;39.30
72646;DHT22;60687;53.876;10.674;2023-04-06T12:38:16;11.40;41.40
72646;DHT22;60687;53.876;10.674;2023-04-06T12:48:19;11.30;39.50
72646;DHT22;60687;53.876;10.674;2023-04-06T12:58:24;11.20;41.90
72646;DHT22;60687;53.876;10.674;2023-04-06T13:08:28;11.20;38.10
72646;DHT22;60687;53.876;10.674;2023-04-06T13:18:33;11.20;41.30
72646;DHT22;60687;53.876;10.674;2023-04-06T13:28:37;11.20;41.80
72646;DHT22;60687;53.876;10.674;2023-04-06T13:38:42;11.10;38.90
72646;DHT22;60687;53.876;10.674;2023-04-06T13:48:44;11.10;39.00
72646;DHT22;60687;53.876;10.674;2023-04-06T13:58:55;11.00;39.00
72646;DHT22;60687;53.876;10.674;2023-04-06T14:08:58;11.00;41.40
72646;DHT22;60687;53.876;10.674;2023-04-06T14:19:03;11.20;41.80
72646;DHT22;60687;53.876;10.674;2023-04-06T14:29:08;11.30;41.90
72646;DHT22;60687;53.876;10.674;2023-04-06T14:39:12;11.30;41.70
72646;DHT22;60687;53.876;10.674;2023-04-06T14:49:14;11.30;40.80
72646;DHT22;60687;53.876;10.674;2023-04-06T14:59:18;11.30;41.90
72646;DHT22;60687;53.876;10.674;2023-04-06T15:09:21;11.20;41.40
72646;DHT22;60687;53.876;10.674;2023-04-06T15:19:25;11.10;42.20
72646;DHT22;60687;53.876;10.674;2023-04-06T15:29:27;11.10;41.20
72646;DHT22;60687;53.876;10.674;2023-04-06T15:39:34;11.10;40.40
72646;DHT22;60687;53.876;10.674;2023-04-06T15:49:37;11.10;41.60
72646;DHT22;60687;53.876;10.674;2023-04-06T15:59:42;11.10;41.80
72646;DHT22;60687;53.876;10.674;2023-04-06T16:09:49;11.00;40.20
72646;DHT22;60687;53.876;10.674;2023-04-06T16:19:53;11.00;42.40
72646;DHT22;60687;53.876;10.674;2023-04-06T16:29:57;10.90;42.10
72646;DHT22;60687;53.876;10.674;2023-04-06T16:40:01;10.90;41.80
72646;DHT22;60687;53.876;10.674;2023-04-06T16:50:06;10.80;42.60
72646;DHT22;60687;53.876;10.674;2023-04-06T17:00:13;10.80;40.30
72646;DHT22;60687;53.876;10.674;2023-04-06T17:10:17;10.70;41.80
72646;DHT22;60687;53.876;10.674;2023-04-06T17:20:21;10.70;42.40
72646;DHT22;60687;53.876;10.674;2023-04-06T17:30:24;10.60;42.50
72646;DHT22;60687;53.876;10.674;2023-04-06T17:40:28;10.50;44.00
72646;DHT22;60687;53.876;10.674;2023-04-06T17:50:31;10.40;43.70
72646;DHT22;60687;53.876;10.674;2023-04-06T18:00:35;10.40;44.30
72646;DHT22;60687;53.876;10.674;2023-04-06T18:10:38;10.20;45.60
72646;DHT22;60687;53.876;10.674;2023-04-06T18:20:42;10.00;46.40
72646;DHT22;60687;53.876;10.674;2023-04-06T18:30:44;9.90;46.60
72646;DHT22;60687;53.876;10.674;2023-04-06T18:40:48;9.70;47.80
72646;DHT22;60687;53.876;10.674;2023-04-06T18:50:54;9.60;47.90
72646;DHT22;60687;53.876;10.674;2023-04-06T19:01:01;9.40;48.00
72646;DHT22;60687;53.876;10.674;2023-04-06T19:11:05;9.20;48.20
72646;DHT22;60687;53.876;10.674;2023-04-06T19:21:19;9.10;49.40
72646;DHT22;60687;53.876;10.674;2023-04-06T19:31:22;8.90;49.60
72646;DHT22;60687;53.876;10.674;2023-04-06T19:41:27;8.80;50.00
72646;DHT22;60687;53.876;10.674;2023-04-06T19:51:30;8.70;50.00
72646;DHT22;60687;53.876;10.674;2023-04-06T20:01:34;8.50;50.30
72646;DHT22;60687;53.876;10.674;2023-04-06T20:11:37;8.50;50.90
72646;DHT22;60687;53.876;10.674;2023-04-06T20:21:41;8.30;51.00
72646;DHT22;60687;53.876;10.674;2023-04-06T20:31:43;8.20;52.10
72646;DHT22;60687;53.876;10.674;2023-04-06T20:41:49;8.10;52.20
72646;DHT22;60687;53.876;10.674;2023-04-06T20:51:54;7.90;52.50
72646;DHT22;60687;53.876;10.674;2023-04-06T21:02:00;7.90;53.10
72646;DHT22;60687;53.876;10.674;2023-04-06T21:12:02;7.70;52.80
72646;DHT22;60687;53.876;10.674;2023-04-06T21:22:06;7.70;53.10
72646;DHT22;60687;53.876;10.674;2023-04-06T21:32:10;7.50;53.00
72646;DHT22;60687;53.876;10.674;2023-04-06T21:42:14;7.50;53.60
72646;DHT22;60687;53.876;10.674;2023-04-06T21:52:17;7.40;54.00
72646;DHT22;60687;53.876;10.674;2023-04-06T22:02:20;7.30;53.60
72646;DHT22;60687;53.876;10.674;2023-04-06T22:12:23;7.20;54.30
72646;DHT22;60687;53.876;10.674;2023-04-06T22:22:27;7.10;54.00
72646;DHT22;60687;53.876;10.674;2023-04-06T22:32:29;7.00;54.20
72646;DHT22;60687;53.876;10.674;2023-04-06T22:42:33;6.90;54.90
72646;DHT22;60687;53.876;10.674;2023-04-06T22:52:35;6.80;55.00
72646;DHT22;60687;53.876;10.674;2023-04-06T23:02:39;6.70;55.40
72646;DHT22;60687;53.876;10.674;2023-04-06T23:12:41;6.60;55.60
72646;DHT22;60687;53.876;10.674;2023-04-06T23:22:45;6.50;56.00
72646;DHT22;60687;53.876;10.674;2023-04-06T23:32:47;6.40;56.30
72646;DHT22;60687;53.876;10.674;2023-04-06T23:42:51;6.30;56.60
72646;DHT22;60687;53.876;10.674;2023-04-06T23:52:54;6.20;57.00
